Weather observations for the past three days for
Las Vegas, North Las Vegas Airport
Imperial (Metric)
Date Time (pdt) Wind (mph) Vis. (mi.) Weather Sky Cond. Temperature (ºF) Relative Humidity Wind Chill (°F) Heat Index (°F) Pressure Precipitation (in)
Air Dwpt 6 hour altimeter (in) sea level (mb) 1 hr 3 hr 6 hr
Max. Min.
07 15:53 S 5 10.00 Fair CLR 90 24.1 9% 86 29.85 1010.3
07 14:53 Vrbl 3 10.00 Fair CLR 89.1 23 9% 85 29.89 1011.5
07 13:53 SE 3 10.00 Fair CLR 87.1 21.9 9% 84 29.92 1012.8
07 12:53 NE 6 10.00 Fair CLR 86 21 9% 83 29.95 1013.8
07 11:53 Calm 10.00 Fair CLR 84 19 9% 81 29.98 1014.8
07 10:53 E 5 10.00 Fair CLR 81 21 81 63 11% 79 30.01 1015.8
07 09:53 SE 6 10.00 Fair CLR 78.1 23 13% 77 30.02 1016.1
07 08:53 SE 6 10.00 Fair CLR 75.9 25 15% 76 30.03 1016.4
07 07:53 Calm 10.00 Fair CLR 73 28 19% 30.03 1016.7
07 06:53 Calm 10.00 Fair CLR 66 28.9 25% 30.03 1016.7
07 05:53 NW 5 10.00 Fair CLR 63 27 26% 30.01 1016.3
07 04:53 S 5 10.00 Fair CLR 66.9 21.9 75 66.9 18% 30.01 1015.8
07 03:53 Calm 10.00 Fair CLR 69.1 19.9 15% 30.01 1015.9
07 02:53 W 3 10.00 Fair CLR 71.1 23 16% 30 1015.5
07 01:53 Calm 10.00 Fair CLR 73 27 18% 30 1015.6
07 00:53 W 3 10.00 Fair CLR 71.1 34 26% 30 1015.8
06 23:53 N 5 10.00 Fair CLR 73 33.1 23% 29.99 1015.2
06 22:53 NE 6 10.00 Fair CLR 73.9 32 84 73.9 21% 29.97 1014.6
06 21:53 Calm 10.00 Fair CLR 79 33.1 19% 78 29.95 1013.9
06 20:53 S 3 10.00 Fair CLR 80.1 32 17% 78 29.94 1013.6
06 19:53 SE 3 10.00 Fair CLR 81 30.9 16% 79 29.92 1013.0
06 18:53 S 5 10.00 Fair CLR 82.9 32 16% 80 29.9 1012.5
06 17:53 SE 6 10.00 Fair CLR 82.9 32 16% 80 29.9 1012.5
06 16:53 SE 8 10.00 Fair CLR 84 33.1 84 73.9 16% 81 29.9 1012.5
06 15:53 E 8 10.00 Fair CLR 82.9 33.1 17% 80 29.92 1013.1
06 14:53 Calm 10.00 Fair CLR 81 34 18% 79 29.94 1013.8
06 13:53 SE 12 10.00 Fair CLR 82 34 18% 80 29.96 1014.6
06 12:53 S 6 10.00 Fair CLR 78.1 35.1 21% 78 29.98 1015.1
06 11:53 E 7 10.00 Fair CLR 77 34 21% 77 29.99 1015.7
06 10:53 SE 8 10.00 Fair CLR 73.9 34 73.9 60.1 23% 30 1016.0
06 09:53 E 6 10.00 Fair CLR 72 35.1 26% 29.99 1015.8
06 08:53 NE 6 10.00 Fair CLR 66.9 35.1 31% 29.99 1015.9
06 07:53 NE 3 10.00 Fair CLR 64 36 35% 29.98 1015.6
06 06:53 N 3 10.00 Fair CLR 61 34 36% 29.96 1015.0
06 05:53 W 3 10.00 Fair CLR 61 32 34% 29.94 1014.0
06 04:53 NW 3 10.00 Fair CLR 60.1 30.9 68 59 33% 29.92 1013.6
06 03:53 N 6 10.00 Fair CLR 60.1 32 35% 29.91 1013.0
06 02:53 Calm 10.00 Fair CLR 64 32 30% 29.89 1012.2
06 01:53 Calm 10.00 Fair CLR 64 30.9 29% 29.88 1012.0
06 00:53 NE 3 10.00 Fair CLR 66 30.9 27% 29.88 1011.9
05 23:53 Calm 10.00 Fair CLR 66.9 33.1 29% 29.87 1011.6
05 22:53 NW 3 10.00 Fair CLR 68 33.1 75 68 27% 29.85 1011.1
05 21:53 SW 8 10.00 Fair CLR 70 33.1 26% 29.83 1010.5
05 20:53 SW 8 10.00 Fair CLR 71.1 33.1 25% 29.81 1009.9
05 19:53 S 12 10.00 Fair CLR 72 30.9 22% 29.78 1008.9
05 18:53 S 8 10.00 Fair CLR 73 28 19% 29.77 1008.3
05 17:53 SE 8 10.00 Fair CLR 73.9 27 17% 29.76 1008.2
05 16:53 Calm 10.00 Fair CLR 73.9 27 75 66 17% 29.76 1008.0
05 15:53 Vrbl 5 10.00 Fair CLR 73 26.1 17% 29.77 1008.5
05 14:53 Calm 10.00 Fair CLR 73 26.1 17% 29.79 1009.1
05 13:53 SW 3 10.00 Fair CLR 71.1 28.9 21% 29.81 1009.7
05 12:53 Calm 10.00 Fair CLR 70 30 23% 29.82 1010.1
05 11:53 S 12 G 18 10.00 Fair CLR 69.1 32 25% 29.83 1010.5
05 10:53 SE 10 10.00 Fair CLR 66.9 33.1 66.9 57 29% 29.84 1010.6
05 09:53 Vrbl 3 10.00 Fair CLR 64 35.1 34% 29.84 1010.8
05 08:53 Calm 10.00 Fair CLR 61 36 39% 29.84 1011.0
05 07:53 SE 6 10.00 Fair CLR 60.1 36 41% 29.84 1010.7
05 06:53 SE 8 10.00 Fair CLR 57.9 36 44% 29.83 1010.4
05 05:53 SE 5 10.00 Fair CLR 57 36 45% 29.81 1009.8
05 04:53 S 6 10.00 Fair CLR 57.9 36 66 57.9 44% 29.8 1009.5
05 03:53 S 13 10.00 Fair CLR 59 35.1 41% 29.79 1008.9
05 02:53 S 14 10.00 Fair CLR 60.1 35.1 39% 29.79 1008.9
05 01:53 S 16 10.00 Fair CLR 62.1 35.1 37% 29.79 1008.8
05 00:53 S 9 10.00 Fair CLR 63 34 34% 29.8 1009.2
04 23:53 S 9 10.00 Fair CLR 64 33.1 32% 29.79 1009.1
04 22:53 SW 13 10.00 Fair CLR 66 32 75.9 66 28% 29.79 1008.9
04 21:53 SW 16 10.00 Fair CLR 68 30.9 25% 29.78 1008.5
04 20:53 SW 17 G 30 10.00 Fair CLR 69.1 30 23% 29.76 1007.7
04 19:53 S 18 10.00 Fair CLR 71.1 28 20% 29.73 1006.9
04 18:53 S 21 G 25 10.00 Fair and Breezy CLR 73 23 15% 29.72 1006.5
04 17:53 SW 15 G 29 10.00 Fair CLR 75 23 14% 75 29.72 1006.6
04 16:53 S 18 G 25 10.00 Fair CLR 75.9 25 79 70 15% 76 29.72 1006.5
Date Time (pdt) Wind (mph) Vis. (mi.) Weather Sky Cond. Air Dwpt Max. Min. Relative Humidity Wind Chill (°F) Heat Index (°F) altimeter (in) sea level (mb) 1 hr 3 hr 6 hr
6 hour
Temperature (ºF) Pressure Precipitation (in)